sensor_id;sensor_type;location;lat;lon;timestamp;noise_LAeq;noise_LA_min;noise_LA_max;noise_LA01;noise_LA95
66450;Laerm;56829;52.274;4.770;2023-02-13T00:00:08;35.29;33.24;36.93;;
66450;Laerm;56829;52.274;4.770;2023-02-13T00:00:20;35.86;33.84;37.49;;
66450;Laerm;56829;52.274;4.770;2023-02-13T00:00:32;36.00;33.69;39.73;;
66450;Laerm;56829;52.274;4.770;2023-02-13T00:00:42;35.35;33.58;37.39;;
66450;Laerm;56829;52.274;4.770;2023-02-13T00:00:53;34.81;32.86;36.80;;
66450;Laerm;56829;52.274;4.770;2023-02-13T00:01:03;35.03;32.82;36.89;;
66450;Laerm;56829;52.274;4.770;2023-02-13T00:01:14;34.52;32.91;36.17;;
66450;Laerm;56829;52.274;4.770;2023-02-13T00:01:24;34.56;32.60;36.35;;
66450;Laerm;56829;52.274;4.770;2023-02-13T00:01:34;34.45;32.88;36.49;;
66450;Laerm;56829;52.274;4.770;2023-02-13T00:01:44;35.83;33.59;37.89;;
66450;Laerm;56829;52.274;4.770;2023-02-13T00:01:55;35.70;32.72;41.36;;
66450;Laerm;56829;52.274;4.770;2023-02-13T00:02:05;34.12;32.85;35.63;;
66450;Laerm;56829;52.274;4.770;2023-02-13T00:02:15;34.33;32.55;36.90;;
66450;Laerm;56829;52.274;4.770;2023-02-13T00:02:26;34.82;32.74;36.65;;
66450;Laerm;56829;52.274;4.770;2023-02-13T00:02:36;34.60;33.18;35.97;;
66450;Laerm;56829;52.274;4.770;2023-02-13T00:02:46;34.23;32.68;35.79;;
66450;Laerm;56829;52.274;4.770;2023-02-13T00:02:56;34.38;32.70;36.09;;
66450;Laerm;56829;52.274;4.770;2023-02-13T00:03:06;33.90;32.15;35.63;;
66450;Laerm;56829;52.274;4.770;2023-02-13T00:03:17;33.87;32.42;35.21;;
66450;Laerm;56829;52.274;4.770;2023-02-13T00:03:27;34.93;32.90;38.68;;
66450;Laerm;56829;52.274;4.770;2023-02-13T00:03:37;33.88;32.23;36.29;;
66450;Laerm;56829;52.274;4.770;2023-02-13T00:03:47;33.97;32.20;35.56;;
66450;Laerm;56829;52.274;4.770;2023-02-13T00:03:58;33.63;32.08;35.39;;
66450;Laerm;56829;52.274;4.770;2023-02-13T00:04:08;33.84;32.23;35.24;;
66450;Laerm;56829;52.274;4.770;2023-02-13T00:04:19;33.45;31.92;34.98;;
66450;Laerm;56829;52.274;4.770;2023-02-13T00:04:29;34.45;31.90;37.17;;
66450;Laerm;56829;52.274;4.770;2023-02-13T00:04:39;35.03;32.91;37.15;;
66450;Laerm;56829;52.274;4.770;2023-02-13T00:04:51;34.85;33.19;36.38;;
66450;Laerm;56829;52.274;4.770;2023-02-13T00:05:02;34.57;33.03;36.71;;
66450;Laerm;56829;52.274;4.770;2023-02-13T00:05:12;34.41;32.48;35.85;;
66450;Laerm;56829;52.274;4.770;2023-02-13T00:05:22;34.97;33.24;39.40;;
66450;Laerm;56829;52.274;4.770;2023-02-13T00:05:32;35.14;32.49;39.75;;
66450;Laerm;56829;52.274;4.770;2023-02-13T00:05:43;34.83;32.81;39.33;;
66450;Laerm;56829;52.274;4.770;2023-02-13T00:05:53;35.79;32.50;45.47;;
66450;Laerm;56829;52.274;4.770;2023-02-13T00:06:03;34.99;33.18;36.48;;
66450;Laerm;56829;52.274;4.770;2023-02-13T00:06:13;34.66;32.64;37.68;;
66450;Laerm;56829;52.274;4.770;2023-02-13T00:06:23;34.00;32.23;36.39;;
66450;Laerm;56829;52.274;4.770;2023-02-13T00:06:34;34.16;32.51;35.87;;
66450;Laerm;56829;52.274;4.770;2023-02-13T00:06:44;34.88;32.90;37.45;;
66450;Laerm;56829;52.274;4.770;2023-02-13T00:06:56;34.36;32.86;35.79;;
66450;Laerm;56829;52.274;4.770;2023-02-13T00:07:07;34.49;32.36;36.21;;
66450;Laerm;56829;52.274;4.770;2023-02-13T00:07:17;34.68;33.03;36.35;;
66450;Laerm;56829;52.274;4.770;2023-02-13T00:07:27;34.23;32.68;36.64;;
66450;Laerm;56829;52.274;4.770;2023-02-13T00:07:37;34.30;32.98;35.57;;
66450;Laerm;56829;52.274;4.770;2023-02-13T00:07:47;34.51;33.10;36.37;;
66450;Laerm;56829;52.274;4.770;2023-02-13T00:07:57;34.52;32.81;37.98;;
66450;Laerm;56829;52.274;4.770;2023-02-13T00:08:08;34.51;32.48;36.90;;
66450;Laerm;56829;52.274;4.770;2023-02-13T00:08:18;33.78;32.28;35.40;;
66450;Laerm;56829;52.274;4.770;2023-02-13T00:08:28;34.18;32.39;35.75;;
66450;Laerm;56829;52.274;4.770;2023-02-13T00:08:38;34.39;32.74;35.76;;
66450;Laerm;56829;52.274;4.770;2023-02-13T00:08:50;34.50;32.97;35.79;;
66450;Laerm;56829;52.274;4.770;2023-02-13T00:09:00;35.71;33.93;37.89;;
66450;Laerm;56829;52.274;4.770;2023-02-13T00:09:11;39.31;33.61;43.06;;
66450;Laerm;56829;52.274;4.770;2023-02-13T00:09:21;40.54;38.03;43.23;;
66450;Laerm;56829;52.274;4.770;2023-02-13T00:09:32;41.45;38.04;45.52;;
66450;Laerm;56829;52.274;4.770;2023-02-13T00:09:42;44.36;38.60;47.89;;
66450;Laerm;56829;52.274;4.770;2023-02-13T00:09:52;41.76;38.85;45.49;;
66450;Laerm;56829;52.274;4.770;2023-02-13T00:10:02;41.48;37.88;44.20;;
66450;Laerm;56829;52.274;4.770;2023-02-13T00:10:12;43.11;38.92;47.21;;
66450;Laerm;56829;52.274;4.770;2023-02-13T00:10:23;39.03;36.48;41.84;;
66450;Laerm;56829;52.274;4.770;2023-02-13T00:10:33;38.34;35.65;41.99;;
66450;Laerm;56829;52.274;4.770;2023-02-13T00:10:43;35.49;33.32;37.39;;
66450;Laerm;56829;52.274;4.770;2023-02-13T00:10:54;34.62;32.45;36.31;;
66450;Laerm;56829;52.274;4.770;2023-02-13T00:11:04;35.57;33.52;37.38;;
66450;Laerm;56829;52.274;4.770;2023-02-13T00:11:14;35.09;33.41;38.31;;
66450;Laerm;56829;52.274;4.770;2023-02-13T00:11:24;36.18;33.92;38.60;;
66450;Laerm;56829;52.274;4.770;2023-02-13T00:11:35;35.96;33.45;38.53;;
66450;Laerm;56829;52.274;4.770;2023-02-13T00:11:45;34.87;32.56;36.96;;
66450;Laerm;56829;52.274;4.770;2023-02-13T00:11:55;33.57;32.01;35.69;;
66450;Laerm;56829;52.274;4.770;2023-02-13T00:12:06;40.46;33.17;48.22;;
66450;Laerm;56829;52.274;4.770;2023-02-13T00:12:16;39.61;36.06;43.17;;
66450;Laerm;56829;52.274;4.770;2023-02-13T00:12:26;41.20;36.20;46.08;;
66450;Laerm;56829;52.274;4.770;2023-02-13T00:12:36;43.95;35.74;50.17;;
66450;Laerm;56829;52.274;4.770;2023-02-13T00:12:46;45.39;39.09;53.24;;
66450;Laerm;56829;52.274;4.770;2023-02-13T00:12:57;40.74;37.93;45.97;;
66450;Laerm;56829;52.274;4.770;2023-02-13T00:13:07;39.91;35.58;43.60;;
66450;Laerm;56829;52.274;4.770;2023-02-13T00:13:17;35.81;33.05;38.03;;
66450;Laerm;56829;52.274;4.770;2023-02-13T00:13:27;37.74;34.45;40.86;;
66450;Laerm;56829;52.274;4.770;2023-02-13T00:13:37;36.30;33.55;39.71;;
66450;Laerm;56829;52.274;4.770;2023-02-13T00:13:48;35.39;32.76;38.56;;
66450;Laerm;56829;52.274;4.770;2023-02-13T00:13:58;35.02;32.80;38.56;;
66450;Laerm;56829;52.274;4.770;2023-02-13T00:14:08;36.14;33.47;40.16;;
66450;Laerm;56829;52.274;4.770;2023-02-13T00:14:18;35.19;32.85;38.68;;
66450;Laerm;56829;52.274;4.770;2023-02-13T00:14:29;34.66;32.77;36.94;;
66450;Laerm;56829;52.274;4.770;2023-02-13T00:14:39;34.59;32.92;36.24;;
66450;Laerm;56829;52.274;4.770;2023-02-13T00:14:49;34.23;32.46;35.68;;
66450;Laerm;56829;52.274;4.770;2023-02-13T00:14:59;33.79;31.76;36.14;;
66450;Laerm;56829;52.274;4.770;2023-02-13T00:15:09;33.43;31.80;35.09;;
66450;Laerm;56829;52.274;4.770;2023-02-13T00:15:20;33.37;31.40;35.99;;
66450;Laerm;56829;52.274;4.770;2023-02-13T00:15:30;33.45;31.74;35.68;;
66450;Laerm;56829;52.274;4.770;2023-02-13T00:15:40;33.61;32.06;35.28;;
66450;Laerm;56829;52.274;4.770;2023-02-13T00:15:57;34.22;32.27;36.54;;
66450;Laerm;56829;52.274;4.770;2023-02-13T00:16:08;34.88;32.17;46.02;;
66450;Laerm;56829;52.274;4.770;2023-02-13T00:16:18;35.68;32.40;40.28;;
66450;Laerm;56829;52.274;4.770;2023-02-13T00:16:28;33.91;31.59;36.61;;
66450;Laerm;56829;52.274;4.770;2023-02-13T00:16:38;34.77;32.32;38.10;;
66450;Laerm;56829;52.274;4.770;2023-02-13T00:16:49;35.42;31.79;40.68;;
66450;Laerm;56829;52.274;4.770;2023-02-13T00:16:59;33.24;31.83;34.73;;
66450;Laerm;56829;52.274;4.770;2023-02-13T00:17:09;34.46;32.15;37.85;;
66450;Laerm;56829;52.274;4.770;2023-02-13T00:17:19;37.45;32.79;42.33;;
66450;Laerm;56829;52.274;4.770;2023-02-13T00:17:29;43.21;32.02;49.23;;
66450;Laerm;56829;52.274;4.770;2023-02-13T00:17:40;49.58;33.50;63.13;;
66450;Laerm;56829;52.274;4.770;2023-02-13T00:17:50;40.61;33.66;48.34;;
66450;Laerm;56829;52.274;4.770;2023-02-13T00:18:00;38.39;32.84;45.03;;
66450;Laerm;56829;52.274;4.770;2023-02-13T00:18:11;38.33;32.31;46.07;;
66450;Laerm;56829;52.274;4.770;2023-02-13T00:18:21;34.88;32.51;39.58;;
66450;Laerm;56829;52.274;4.770;2023-02-13T00:18:36;33.72;32.01;35.08;;
66450;Laerm;56829;52.274;4.770;2023-02-13T00:18:46;33.18;31.27;35.53;;
66450;Laerm;56829;52.274;4.770;2023-02-13T00:18:56;33.28;31.66;35.90;;
66450;Laerm;56829;52.274;4.770;2023-02-13T00:19:06;34.04;32.11;35.99;;
66450;Laerm;56829;52.274;4.770;2023-02-13T00:19:17;34.17;32.16;36.72;;
66450;Laerm;56829;52.274;4.770;2023-02-13T00:19:27;35.03;32.14;42.48;;
66450;Laerm;56829;52.274;4.770;2023-02-13T00:19:37;39.51;33.20;52.15;;
66450;Laerm;56829;52.274;4.770;2023-02-13T00:19:47;43.46;34.03;57.74;;
66450;Laerm;56829;52.274;4.770;2023-02-13T00:19:57;42.28;34.68;56.26;;
66450;Laerm;56829;52.274;4.770;2023-02-13T00:20:09;54.98;37.22;66.64;;
66450;Laerm;56829;52.274;4.770;2023-02-13T00:20:19;52.74;34.18;64.42;;
66450;Laerm;56829;52.274;4.770;2023-02-13T00:20:29;34.05;32.11;36.25;;
66450;Laerm;56829;52.274;4.770;2023-02-13T00:20:39;33.58;31.92;34.97;;
66450;Laerm;56829;52.274;4.770;2023-02-13T00:20:56;33.70;32.28;35.22;;
66450;Laerm;56829;52.274;4.770;2023-02-13T00:21:10;34.31;32.13;36.69;;
66450;Laerm;56829;52.274;4.770;2023-02-13T00:21:20;33.67;32.27;35.24;;
66450;Laerm;56829;52.274;4.770;2023-02-13T00:21:30;33.28;32.03;35.26;;
66450;Laerm;56829;52.274;4.770;2023-02-13T00:21:40;33.44;31.88;35.07;;
66450;Laerm;56829;52.274;4.770;2023-02-13T00:21:51;33.36;31.83;34.84;;
66450;Laerm;56829;52.274;4.770;2023-02-13T00:22:01;33.35;31.77;35.51;;
66450;Laerm;56829;52.274;4.770;2023-02-13T00:22:11;34.08;32.29;35.99;;
66450;Laerm;56829;52.274;4.770;2023-02-13T00:22:21;33.93;32.11;35.74;;
66450;Laerm;56829;52.274;4.770;2023-02-13T00:22:35;34.19;32.30;36.11;;
66450;Laerm;56829;52.274;4.770;2023-02-13T00:22:45;33.72;32.21;35.50;;
66450;Laerm;56829;52.274;4.770;2023-02-13T00:22:57;33.99;32.21;35.84;;
66450;Laerm;56829;52.274;4.770;2023-02-13T00:23:07;34.03;32.35;35.53;;
66450;Laerm;56829;52.274;4.770;2023-02-13T00:23:17;35.00;32.96;37.71;;
66450;Laerm;56829;52.274;4.770;2023-02-13T00:23:31;34.86;32.97;37.37;;
66450;Laerm;56829;52.274;4.770;2023-02-13T00:23:41;36.28;31.81;40.58;;
66450;Laerm;56829;52.274;4.770;2023-02-13T00:23:52;51.70;40.01;61.14;;
66450;Laerm;56829;52.274;4.770;2023-02-13T00:24:02;50.22;41.77;57.90;;
66450;Laerm;56829;52.274;4.770;2023-02-13T00:24:12;41.71;35.05;50.03;;
66450;Laerm;56829;52.274;4.770;2023-02-13T00:24:22;33.58;31.63;37.07;;
66450;Laerm;56829;52.274;4.770;2023-02-13T00:24:33;32.95;31.29;34.97;;
66450;Laerm;56829;52.274;4.770;2023-02-13T00:24:43;32.56;30.93;34.55;;
66450;Laerm;56829;52.274;4.770;2023-02-13T00:24:53;34.61;31.89;37.60;;
66450;Laerm;56829;52.274;4.770;2023-02-13T00:25:04;34.60;32.36;36.75;;
66450;Laerm;56829;52.274;4.770;2023-02-13T00:25:14;33.86;32.26;35.39;;
66450;Laerm;56829;52.274;4.770;2023-02-13T00:25:24;32.95;31.50;34.88;;
66450;Laerm;56829;52.274;4.770;2023-02-13T00:25:34;33.12;31.47;35.10;;
66450;Laerm;56829;52.274;4.770;2023-02-13T00:25:44;32.47;30.84;34.84;;
66450;Laerm;56829;52.274;4.770;2023-02-13T00:25:56;32.68;30.35;34.94;;
66450;Laerm;56829;52.274;4.770;2023-02-13T00:26:08;33.78;32.00;35.73;;
66450;Laerm;56829;52.274;4.770;2023-02-13T00:26:18;33.67;31.58;36.30;;
66450;Laerm;56829;52.274;4.770;2023-02-13T00:26:28;32.51;30.89;35.98;;
66450;Laerm;56829;52.274;4.770;2023-02-13T00:26:39;32.40;30.98;33.69;;
66450;Laerm;56829;52.274;4.770;2023-02-13T00:26:49;32.64;31.04;35.04;;
66450;Laerm;56829;52.274;4.770;2023-02-13T00:26:59;34.23;31.33;42.25;;
66450;Laerm;56829;52.274;4.770;2023-02-13T00:27:10;32.57;31.03;33.82;;
66450;Laerm;56829;52.274;4.770;2023-02-13T00:27:20;32.56;31.10;33.93;;
66450;Laerm;56829;52.274;4.770;2023-02-13T00:27:30;32.96;31.36;34.81;;
66450;Laerm;56829;52.274;4.770;2023-02-13T00:27:40;32.60;31.03;33.78;;
66450;Laerm;56829;52.274;4.770;2023-02-13T00:27:51;32.80;31.16;34.49;;
66450;Laerm;56829;52.274;4.770;2023-02-13T00:28:02;33.20;31.21;34.98;;
66450;Laerm;56829;52.274;4.770;2023-02-13T00:28:13;33.10;31.85;34.58;;
66450;Laerm;56829;52.274;4.770;2023-02-13T00:28:23;33.18;31.28;34.84;;
66450;Laerm;56829;52.274;4.770;2023-02-13T00:28:33;35.86;32.08;42.12;;
66450;Laerm;56829;52.274;4.770;2023-02-13T00:28:44;34.72;32.80;37.25;;
66450;Laerm;56829;52.274;4.770;2023-02-13T00:28:55;42.60;35.13;49.93;;
66450;Laerm;56829;52.274;4.770;2023-02-13T00:29:05;53.91;42.33;63.69;;
66450;Laerm;56829;52.274;4.770;2023-02-13T00:29:15;36.97;31.22;42.98;;
66450;Laerm;56829;52.274;4.770;2023-02-13T00:29:25;32.51;31.03;34.15;;
66450;Laerm;56829;52.274;4.770;2023-02-13T00:29:36;32.18;30.92;33.57;;
66450;Laerm;56829;52.274;4.770;2023-02-13T00:29:46;32.04;30.56;33.52;;
66450;Laerm;56829;52.274;4.770;2023-02-13T00:29:56;32.62;30.56;34.15;;
66450;Laerm;56829;52.274;4.770;2023-02-13T00:30:07;32.61;30.84;35.04;;
66450;Laerm;56829;52.274;4.770;2023-02-13T00:30:17;32.66;30.93;35.04;;
66450;Laerm;56829;52.274;4.770;2023-02-13T00:30:27;33.08;31.43;35.13;;
66450;Laerm;56829;52.274;4.770;2023-02-13T00:30:37;33.56;31.28;36.18;;
66450;Laerm;56829;52.274;4.770;2023-02-13T00:30:47;33.15;31.72;34.67;;
66450;Laerm;56829;52.274;4.770;2023-02-13T00:31:02;33.04;31.37;34.81;;
66450;Laerm;56829;52.274;4.770;2023-02-13T00:31:15;33.74;31.82;35.25;;
66450;Laerm;56829;52.274;4.770;2023-02-13T00:31:25;33.88;32.26;35.72;;
66450;Laerm;56829;52.274;4.770;2023-02-13T00:31:35;33.76;32.01;35.96;;
66450;Laerm;56829;52.274;4.770;2023-02-13T00:31:45;33.75;31.71;35.18;;
66450;Laerm;56829;52.274;4.770;2023-02-13T00:31:55;33.73;31.81;35.36;;
66450;Laerm;56829;52.274;4.770;2023-02-13T00:32:07;33.72;31.83;35.63;;
66450;Laerm;56829;52.274;4.770;2023-02-13T00:32:17;34.07;32.25;35.44;;
66450;Laerm;56829;52.274;4.770;2023-02-13T00:32:27;34.28;32.69;37.32;;
66450;Laerm;56829;52.274;4.770;2023-02-13T00:32:37;36.48;34.02;39.30;;
66450;Laerm;56829;52.274;4.770;2023-02-13T00:32:48;35.05;33.05;36.93;;
66450;Laerm;56829;52.274;4.770;2023-02-13T00:32:58;35.30;32.80;37.42;;
66450;Laerm;56829;52.274;4.770;2023-02-13T00:33:08;35.23;32.83;36.86;;
66450;Laerm;56829;52.274;4.770;2023-02-13T00:33:18;36.60;34.24;38.87;;
66450;Laerm;56829;52.274;4.770;2023-02-13T00:33:28;39.44;34.46;45.38;;
66450;Laerm;56829;52.274;4.770;2023-02-13T00:33:39;55.21;41.38;64.06;;
66450;Laerm;56829;52.274;4.770;2023-02-13T00:33:49;47.82;36.19;58.05;;
66450;Laerm;56829;52.274;4.770;2023-02-13T00:33:59;35.11;32.74;37.61;;
66450;Laerm;56829;52.274;4.770;2023-02-13T00:34:10;35.11;32.28;44.94;;
66450;Laerm;56829;52.274;4.770;2023-02-13T00:34:20;34.76;32.98;36.41;;
66450;Laerm;56829;52.274;4.770;2023-02-13T00:34:30;34.39;32.05;36.86;;
66450;Laerm;56829;52.274;4.770;2023-02-13T00:34:40;33.98;32.44;35.44;;
66450;Laerm;56829;52.274;4.770;2023-02-13T00:34:52;34.38;32.48;36.66;;
66450;Laerm;56829;52.274;4.770;2023-02-13T00:35:03;34.02;31.91;35.95;;
66450;Laerm;56829;52.274;4.770;2023-02-13T00:35:13;34.07;32.63;35.96;;
66450;Laerm;56829;52.274;4.770;2023-02-13T00:35:23;33.57;32.17;35.47;;
66450;Laerm;56829;52.274;4.770;2023-02-13T00:35:33;33.83;32.21;35.45;;
66450;Laerm;56829;52.274;4.770;2023-02-13T00:35:43;34.39;32.11;37.37;;
66450;Laerm;56829;52.274;4.770;2023-02-13T00:36:01;34.68;32.51;36.94;;
66450;Laerm;56829;52.274;4.770;2023-02-13T00:36:17;34.13;32.12;37.51;;
66450;Laerm;56829;52.274;4.770;2023-02-13T00:36:28;33.44;31.86;35.61;;
66450;Laerm;56829;52.274;4.770;2023-02-13T00:36:38;33.44;32.07;35.03;;
66450;Laerm;56829;52.274;4.770;2023-02-13T00:36:48;33.32;31.70;35.41;;
66450;Laerm;56829;52.274;4.770;2023-02-13T00:36:59;33.50;31.72;35.56;;
66450;Laerm;56829;52.274;4.770;2023-02-13T00:37:09;36.99;33.01;42.86;;
66450;Laerm;56829;52.274;4.770;2023-02-13T00:37:19;33.97;31.64;36.22;;
66450;Laerm;56829;52.274;4.770;2023-02-13T00:37:29;33.73;32.25;35.15;;
66450;Laerm;56829;52.274;4.770;2023-02-13T00:37:39;34.37;32.15;37.85;;
66450;Laerm;56829;52.274;4.770;2023-02-13T00:37:49;35.33;33.43;37.80;;
66450;Laerm;56829;52.274;4.770;2023-02-13T00:38:00;35.68;32.25;37.98;;
66450;Laerm;56829;52.274;4.770;2023-02-13T00:38:10;35.45;33.10;38.20;;
66450;Laerm;56829;52.274;4.770;2023-02-13T00:38:20;54.93;36.40;65.47;;
66450;Laerm;56829;52.274;4.770;2023-02-13T00:38:30;55.09;40.19;65.04;;
66450;Laerm;56829;52.274;4.770;2023-02-13T00:38:41;38.80;33.23;43.82;;
66450;Laerm;56829;52.274;4.770;2023-02-13T00:38:52;34.56;32.27;36.72;;
66450;Laerm;56829;52.274;4.770;2023-02-13T00:39:02;34.44;32.46;36.69;;
66450;Laerm;56829;52.274;4.770;2023-02-13T00:39:13;33.50;32.11;35.56;;
66450;Laerm;56829;52.274;4.770;2023-02-13T00:39:23;33.31;31.90;34.78;;
66450;Laerm;56829;52.274;4.770;2023-02-13T00:39:33;33.27;31.39;34.45;;
66450;Laerm;56829;52.274;4.770;2023-02-13T00:39:43;33.73;32.16;36.06;;
66450;Laerm;56829;52.274;4.770;2023-02-13T00:39:53;35.07;32.30;37.96;;
66450;Laerm;56829;52.274;4.770;2023-02-13T00:40:05;35.60;33.52;38.53;;
66450;Laerm;56829;52.274;4.770;2023-02-13T00:40:15;34.87;33.02;37.04;;
66450;Laerm;56829;52.274;4.770;2023-02-13T00:40:25;34.49;32.24;35.95;;
66450;Laerm;56829;52.274;4.770;2023-02-13T00:40:35;34.02;32.33;35.63;;
66450;Laerm;56829;52.274;4.770;2023-02-13T00:40:46;33.46;32.18;34.72;;
66450;Laerm;56829;52.274;4.770;2023-02-13T00:40:56;33.74;31.83;35.81;;
66450;Laerm;56829;52.274;4.770;2023-02-13T00:41:06;32.85;31.17;34.80;;
66450;Laerm;56829;52.274;4.770;2023-02-13T00:41:17;32.71;31.08;35.60;;
66450;Laerm;56829;52.274;4.770;2023-02-13T00:41:27;33.22;31.66;35.64;;
66450;Laerm;56829;52.274;4.770;2023-02-13T00:41:37;33.85;31.98;36.18;;
66450;Laerm;56829;52.274;4.770;2023-02-13T00:41:48;33.31;31.66;35.07;;
66450;Laerm;56829;52.274;4.770;2023-02-13T00:41:58;33.23;31.28;34.76;;
66450;Laerm;56829;52.274;4.770;2023-02-13T00:42:08;33.09;31.34;35.00;;
66450;Laerm;56829;52.274;4.770;2023-02-13T00:42:18;32.71;31.23;36.38;;
66450;Laerm;56829;52.274;4.770;2023-02-13T00:42:32;33.91;30.78;44.74;;
66450;Laerm;56829;52.274;4.770;2023-02-13T00:42:43;32.25;31.03;33.91;;
66450;Laerm;56829;52.274;4.770;2023-02-13T00:42:53;32.60;30.83;34.96;;
66450;Laerm;56829;52.274;4.770;2023-02-13T00:43:03;33.49;31.12;37.08;;
66450;Laerm;56829;52.274;4.770;2023-02-13T00:43:13;34.09;30.95;49.61;;
66450;Laerm;56829;52.274;4.770;2023-02-13T00:43:23;33.66;30.62;46.77;;
66450;Laerm;56829;52.274;4.770;2023-02-13T00:43:33;32.87;31.13;35.44;;
66450;Laerm;56829;52.274;4.770;2023-02-13T00:43:44;33.49;31.92;35.87;;
66450;Laerm;56829;52.274;4.770;2023-02-13T00:43:54;32.99;31.00;37.36;;
66450;Laerm;56829;52.274;4.770;2023-02-13T00:44:05;33.11;31.48;35.21;;
66450;Laerm;56829;52.274;4.770;2023-02-13T00:44:15;33.68;31.92;35.19;;
66450;Laerm;56829;52.274;4.770;2023-02-13T00:44:25;33.25;31.61;35.49;;
66450;Laerm;56829;52.274;4.770;2023-02-13T00:44:35;32.90;31.14;36.31;;
66450;Laerm;56829;52.274;4.770;2023-02-13T00:44:45;32.67;31.26;34.09;;
66450;Laerm;56829;52.274;4.770;2023-02-13T00:44:56;33.16;31.09;35.04;;
66450;Laerm;56829;52.274;4.770;2023-02-13T00:45:06;34.20;32.29;36.32;;
66450;Laerm;56829;52.274;4.770;2023-02-13T00:45:16;34.80;32.51;37.77;;
66450;Laerm;56829;52.274;4.770;2023-02-13T00:45:26;33.66;31.82;35.97;;
66450;Laerm;56829;52.274;4.770;2023-02-13T00:45:36;33.71;31.62;35.78;;
66450;Laerm;56829;52.274;4.770;2023-02-13T00:45:47;33.53;31.90;35.13;;
66450;Laerm;56829;52.274;4.770;2023-02-13T00:45:57;32.88;31.38;34.05;;
66450;Laerm;56829;52.274;4.770;2023-02-13T00:46:08;33.06;31.50;34.16;;
66450;Laerm;56829;52.274;4.770;2023-02-13T00:46:18;32.57;31.14;33.91;;
66450;Laerm;56829;52.274;4.770;2023-02-13T00:46:29;32.62;31.33;33.90;;
66450;Laerm;56829;52.274;4.770;2023-02-13T00:46:39;32.71;30.87;35.97;;
66450;Laerm;56829;52.274;4.770;2023-02-13T00:46:49;32.36;30.96;33.71;;
66450;Laerm;56829;52.274;4.770;2023-02-13T00:47:00;32.36;31.04;33.87;;
66450;Laerm;56829;52.274;4.770;2023-02-13T00:47:10;32.63;31.13;34.60;;
66450;Laerm;56829;52.274;4.770;2023-02-13T00:47:23;32.81;31.18;34.38;;
66450;Laerm;56829;52.274;4.770;2023-02-13T00:47:33;33.02;31.46;34.87;;
66450;Laerm;56829;52.274;4.770;2023-02-13T00:47:44;32.92;31.37;39.47;;
66450;Laerm;56829;52.274;4.770;2023-02-13T00:47:54;32.25;30.63;35.56;;
66450;Laerm;56829;52.274;4.770;2023-02-13T00:48:04;32.05;30.53;33.37;;
66450;Laerm;56829;52.274;4.770;2023-02-13T00:48:14;31.69;30.58;32.86;;
66450;Laerm;56829;52.274;4.770;2023-02-13T00:48:25;31.61;29.99;33.38;;
66450;Laerm;56829;52.274;4.770;2023-02-13T00:48:35;31.30;29.45;32.64;;
66450;Laerm;56829;52.274;4.770;2023-02-13T00:48:45;30.71;28.81;35.33;;
66450;Laerm;56829;52.274;4.770;2023-02-13T00:48:56;30.45;28.95;32.93;;
66450;Laerm;56829;52.274;4.770;2023-02-13T00:49:06;31.19;29.62;33.00;;
66450;Laerm;56829;52.274;4.770;2023-02-13T00:49:16;37.85;31.99;42.41;;
66450;Laerm;56829;52.274;4.770;2023-02-13T00:49:26;53.28;40.36;61.49;;
66450;Laerm;56829;52.274;4.770;2023-02-13T00:49:36;39.83;32.09;46.72;;
66450;Laerm;56829;52.274;4.770;2023-02-13T00:49:47;31.71;30.25;33.82;;
66450;Laerm;56829;52.274;4.770;2023-02-13T00:49:57;31.30;29.53;34.12;;
66450;Laerm;56829;52.274;4.770;2023-02-13T00:50:07;31.20;29.55;33.14;;
66450;Laerm;56829;52.274;4.770;2023-02-13T00:50:17;32.15;30.37;35.13;;
66450;Laerm;56829;52.274;4.770;2023-02-13T00:50:28;31.25;29.75;33.06;;
66450;Laerm;56829;52.274;4.770;2023-02-13T00:50:38;32.10;30.51;34.89;;
66450;Laerm;56829;52.274;4.770;2023-02-13T00:50:48;36.21;31.60;40.64;;
66450;Laerm;56829;52.274;4.770;2023-02-13T00:50:58;50.15;37.15;58.11;;
66450;Laerm;56829;52.274;4.770;2023-02-13T00:51:09;42.97;35.23;50.86;;
66450;Laerm;56829;52.274;4.770;2023-02-13T00:51:19;32.97;30.70;37.47;;
66450;Laerm;56829;52.274;4.770;2023-02-13T00:51:29;32.09;30.53;34.81;;
66450;Laerm;56829;52.274;4.770;2023-02-13T00:51:39;31.53;30.14;33.20;;
66450;Laerm;56829;52.274;4.770;2023-02-13T00:51:50;31.09;29.44;32.61;;
66450;Laerm;56829;52.274;4.770;2023-02-13T00:52:00;31.00;29.41;32.99;;
66450;Laerm;56829;52.274;4.770;2023-02-13T00:52:10;31.14;29.72;32.55;;
66450;Laerm;56829;52.274;4.770;2023-02-13T00:52:20;31.01;29.68;32.43;;
66450;Laerm;56829;52.274;4.770;2023-02-13T00:52:30;31.91;30.23;35.16;;
66450;Laerm;56829;52.274;4.770;2023-02-13T00:52:41;31.29;29.82;33.55;;
66450;Laerm;56829;52.274;4.770;2023-02-13T00:52:51;30.78;29.15;33.42;;
66450;Laerm;56829;52.274;4.770;2023-02-13T00:53:01;30.48;29.32;31.88;;
66450;Laerm;56829;52.274;4.770;2023-02-13T00:53:11;30.98;29.31;33.26;;
66450;Laerm;56829;52.274;4.770;2023-02-13T00:53:22;31.09;29.54;35.89;;
66450;Laerm;56829;52.274;4.770;2023-02-13T00:53:33;31.08;29.43;33.02;;
66450;Laerm;56829;52.274;4.770;2023-02-13T00:53:44;31.68;29.95;33.82;;
66450;Laerm;56829;52.274;4.770;2023-02-13T00:53:54;31.06;29.59;34.35;;
66450;Laerm;56829;52.274;4.770;2023-02-13T00:54:04;30.88;29.58;33.19;;
66450;Laerm;56829;52.274;4.770;2023-02-13T00:54:14;31.44;29.85;36.34;;
66450;Laerm;56829;52.274;4.770;2023-02-13T00:54:25;31.32;29.73;34.41;;
66450;Laerm;56829;52.274;4.770;2023-02-13T00:54:35;31.66;29.94;34.66;;
66450;Laerm;56829;52.274;4.770;2023-02-13T00:54:45;31.18;29.64;32.84;;
66450;Laerm;56829;52.274;4.770;2023-02-13T00:54:56;30.81;29.22;32.53;;
66450;Laerm;56829;52.274;4.770;2023-02-13T00:55:06;30.96;29.30;32.36;;
66450;Laerm;56829;52.274;4.770;2023-02-13T00:55:17;37.92;31.37;43.32;;
66450;Laerm;56829;52.274;4.770;2023-02-13T00:55:27;49.94;39.38;57.18;;
66450;Laerm;56829;52.274;4.770;2023-02-13T00:55:37;36.37;32.40;40.77;;
66450;Laerm;56829;52.274;4.770;2023-02-13T00:55:47;33.02;30.68;36.56;;
66450;Laerm;56829;52.274;4.770;2023-02-13T00:55:57;32.22;30.45;34.34;;
66450;Laerm;56829;52.274;4.770;2023-02-13T00:56:08;31.71;30.22;35.38;;
66450;Laerm;56829;52.274;4.770;2023-02-13T00:56:18;31.70;29.90;33.07;;
66450;Laerm;56829;52.274;4.770;2023-02-13T00:56:28;32.43;30.69;35.11;;
66450;Laerm;56829;52.274;4.770;2023-02-13T00:56:38;32.32;30.95;33.72;;
66450;Laerm;56829;52.274;4.770;2023-02-13T00:56:48;32.55;31.07;34.53;;
66450;Laerm;56829;52.274;4.770;2023-02-13T00:56:59;32.10;30.37;33.48;;
66450;Laerm;56829;52.274;4.770;2023-02-13T00:57:09;32.14;30.18;33.86;;
66450;Laerm;56829;52.274;4.770;2023-02-13T00:57:19;32.19;30.86;33.79;;
66450;Laerm;56829;52.274;4.770;2023-02-13T00:57:29;32.41;30.83;34.31;;
66450;Laerm;56829;52.274;4.770;2023-02-13T00:57:40;31.97;30.22;33.69;;
66450;Laerm;56829;52.274;4.770;2023-02-13T00:57:51;32.78;30.79;35.22;;
66450;Laerm;56829;52.274;4.770;2023-02-13T00:58:01;32.80;31.13;36.24;;
66450;Laerm;56829;52.274;4.770;2023-02-13T00:58:11;31.60;30.08;33.44;;
66450;Laerm;56829;52.274;4.770;2023-02-13T00:58:21;31.86;30.51;33.83;;
66450;Laerm;56829;52.274;4.770;2023-02-13T00:58:32;31.75;30.13;33.47;;
66450;Laerm;56829;52.274;4.770;2023-02-13T00:58:42;32.06;30.08;33.71;;